Time,TemperatureF,DewpointF,PressureIn,WindDirection,WindDirectionDegrees,WindSpeedMPH,WindSpeedGustMPH,Humidity,HourlyPrecipIn,Conditions,Clouds,dailyrainin,SolarRadiationWatts/m^2,SoftwareType,DateUTC
2013-05-25 00:00:00,81.2,71.3,30.06,NNW,332,12.0,15.0,72,0.00,,,0.00,0,Wunderground v.1.15,2013-05-25 04:00:00,
2013-05-25 00:30:00,80.7,71.2,30.07,NNW,336,12.0,13.0,73,0.00,,,0.00,0,Wunderground v.1.15,2013-05-25 04:30:00,
2013-05-25 01:00:00,80.4,70.9,30.07,North,349,10.0,10.0,73,0.00,,,0.00,0,Wunderground v.1.15,2013-05-25 05:00:00,
2013-05-25 01:30:00,80.4,70.9,30.06,North,9,13.0,13.0,73,0.00,,,0.00,0,Wunderground v.1.15,2013-05-25 05:30:00,
2013-05-25 02:00:00,80.1,71.5,30.05,NNW,333,12.0,13.0,75,0.00,,,0.00,0,Wunderground v.1.15,2013-05-25 06:00:00,
2013-05-25 02:30:00,79.6,71.4,30.05,NNW,343,13.0,13.0,76,0.00,,,0.00,0,Wunderground v.1.15,2013-05-25 06:30:00,
2013-05-25 03:00:00,79.4,71.2,30.05,NNE,13,12.0,14.0,76,0.00,,,0.00,0,Wunderground v.1.15,2013-05-25 07:00:00,
2013-05-25 03:30:00,77.8,70.8,30.05,NE,43,9.0,9.0,79,0.00,,,0.00,0,Wunderground v.1.15,2013-05-25 07:30:00,
2013-05-25 04:00:00,76.2,69.9,30.05,NE,39,7.0,8.0,81,0.00,,,0.00,0,Wunderground v.1.15,2013-05-25 08:00:00,
2013-05-25 04:30:00,75.1,68.9,30.05,ENE,57,7.0,11.0,81,0.00,,,0.00,0,Wunderground v.1.15,2013-05-25 08:30:00,
2013-05-25 05:00:00,74.0,68.5,30.04,ENE,59,9.0,9.0,83,0.00,,,0.00,0,Wunderground v.1.15,2013-05-25 09:00:00,
2013-05-25 05:30:00,73.3,68.5,30.04,ENE,67,6.0,7.0,85,0.00,,,0.00,0,Wunderground v.1.15,2013-05-25 09:30:00,
2013-05-25 06:00:00,73.4,69.3,30.05,ENE,65,8.0,8.0,87,0.00,,,0.00,0,Wunderground v.1.15,2013-05-25 10:00:00,
2013-05-25 06:30:00,73.4,69.3,30.07,NE,37,9.0,9.0,87,0.00,,,0.00,0,Wunderground v.1.15,2013-05-25 10:30:00,
2013-05-25 07:00:00,73.5,69.7,30.08,NE,56,8.0,12.0,88,0.00,,,0.00,25,Wunderground v.1.15,2013-05-25 11:00:00,
2013-05-25 07:30:00,74.0,70.2,30.09,ENE,65,8.0,13.0,88,0.00,,,0.00,90,Wunderground v.1.15,2013-05-25 11:30:00,
2013-05-25 08:00:00,75.2,70.4,30.10,ENE,77,7.0,13.0,85,0.00,,,0.00,178,Wunderground v.1.15,2013-05-25 12:00:00,
2013-05-25 08:30:00,76.7,71.1,30.11,East,89,8.0,11.0,83,0.00,,,0.00,276,Wunderground v.1.15,2013-05-25 12:30:00,
2013-05-25 09:00:00,78.6,70.8,30.12,ENE,78,10.0,10.0,77,0.00,,,0.00,380,Wunderground v.1.15,2013-05-25 13:00:00,
2013-05-25 09:30:00,79.5,69.7,30.12,East,89,14.0,16.0,72,0.00,,,0.00,476,Wunderground v.1.15,2013-05-25 13:30:00,
2013-05-25 10:00:00,81.0,69.9,30.13,ENE,78,11.0,11.0,69,0.00,,,0.00,573,Wunderground v.1.15,2013-05-25 14:00:00,
2013-05-25 10:30:00,82.5,68.2,30.13,NE,48,9.0,9.0,62,0.00,,,0.00,663,Wunderground v.1.15,2013-05-25 14:30:00,
2013-05-25 11:00:00,82.9,67.1,30.14,ENE,68,11.0,13.0,59,0.00,,,0.00,745,Wunderground v.1.15,2013-05-25 15:00:00,
2013-05-25 11:30:00,84.4,66.5,30.14,East,80,7.0,16.0,55,0.00,,,0.00,828,Wunderground v.1.15,2013-05-25 15:30:00,
2013-05-25 12:00:00,84.3,67.9,30.15,ENE,73,8.0,18.0,58,0.00,,,0.00,923,Wunderground v.1.15,2013-05-25 16:00:00,
2013-05-25 12:30:00,85.2,66.1,30.15,East,85,8.0,11.0,53,0.00,,,0.00,327,Wunderground v.1.15,2013-05-25 16:30:00,
2013-05-25 13:00:00,85.9,65.7,30.14,East,88,8.0,10.0,51,0.00,,,0.00,1113,Wunderground v.1.15,2013-05-25 17:00:00,
2013-05-25 13:30:00,87.4,65.9,30.13,ESE,111,5.0,7.0,49,0.00,,,0.00,1042,Wunderground v.1.15,2013-05-25 17:30:00,
2013-05-25 14:00:00,87.2,64.5,30.12,NE,54,6.0,15.0,47,0.00,,,0.00,1025,Wunderground v.1.15,2013-05-25 18:00:00,
2013-05-25 14:30:00,88.4,63.7,30.11,East,94,5.0,13.0,44,0.00,,,0.00,1037,Wunderground v.1.15,2013-05-25 18:30:00,
2013-05-25 15:00:00,88.8,63.4,30.10,NE,47,4.0,4.0,43,0.00,,,0.00,202,Wunderground v.1.15,2013-05-25 19:00:00,
2013-05-25 15:30:00,89.3,64.5,30.09,ENE,64,3.0,6.0,44,0.00,,,0.00,218,Wunderground v.1.15,2013-05-25 19:30:00,
2013-05-25 16:00:00,88.8,62.7,30.09,ENE,62,7.0,7.0,42,0.00,,,0.00,833,Wunderground v.1.15,2013-05-25 20:00:00,
2013-05-25 16:30:00,88.1,63.4,30.08,East,94,7.0,7.0,44,0.00,,,0.00,158,Wunderground v.1.15,2013-05-25 20:30:00,
2013-05-25 17:00:00,89.4,61.2,30.07,NE,40,4.0,4.0,39,0.00,,,0.00,680,Wunderground v.1.15,2013-05-25 21:00:00,
2013-05-25 17:30:00,89.2,61.0,30.07,NE,43,4.0,5.0,39,0.00,,,0.00,550,Wunderground v.1.15,2013-05-25 21:30:00,
2013-05-25 18:00:00,89.1,62.3,30.07,ENE,76,7.0,8.0,41,0.00,,,0.00,441,Wunderground v.1.15,2013-05-25 22:00:00,
2013-05-25 18:30:00,88.0,62.0,30.06,NE,51,4.0,4.0,42,0.00,,,0.00,137,Wunderground v.1.15,2013-05-25 22:30:00,
2013-05-25 19:00:00,87.6,61.0,30.07,ENE,66,8.0,8.0,41,0.00,,,0.00,176,Wunderground v.1.15,2013-05-25 23:00:00,
2013-05-25 19:30:00,86.5,63.9,30.07,ENE,59,10.0,13.0,47,0.00,,,0.00,51,Wunderground v.1.15,2013-05-25 23:30:00,
2013-05-25 20:00:00,85.1,66.0,30.08,East,92,9.0,9.0,53,0.00,,,0.00,19,Wunderground v.1.15,2013-05-26 00:00:00,
2013-05-25 20:30:00,83.7,66.3,30.09,NE,52,9.0,16.0,56,0.00,,,0.00,0,Wunderground v.1.15,2013-05-26 00:30:00,
2013-05-25 21:00:00,82.2,66.4,30.10,NE,56,9.0,16.0,59,0.00,,,0.00,0,Wunderground v.1.15,2013-05-26 01:00:00,
2013-05-25 21:30:00,81.0,66.8,30.11,ENE,71,9.0,9.0,62,0.00,,,0.00,0,Wunderground v.1.15,2013-05-26 01:30:00,
2013-05-25 22:00:00,79.5,66.3,30.12,ESE,111,10.0,11.0,64,0.00,,,0.00,0,Wunderground v.1.15,2013-05-26 02:00:00,
2013-05-25 22:30:00,78.4,66.1,30.12,NE,56,12.0,12.0,66,0.00,,,0.00,0,Wunderground v.1.15,2013-05-26 02:30:00,
2013-05-25 23:00:00,77.2,66.2,30.14,East,94,13.0,13.0,69,0.00,,,0.00,0,Wunderground v.1.15,2013-05-26 03:00:00,
2013-05-25 23:30:00,76.1,66.4,30.15,East,92,14.0,14.0,72,0.00,,,0.00,0,Wunderground v.1.15,2013-05-26 03:30:00,